Time;durP1;ratioP1;P1;durP2;ratioP2;P2;SDS_P1;SDS_P2;PMS_P1;PMS_P2;Temp;Humidity;BMP_temperature;BMP_pressure;BME280_temperature;BME280_humidity;BME280_pressure;Samples;Min_cycle;Max_cycle;Signal;HPM_P1;HPM_P2
2023/12/11 00:00:32;;;;;;;49.30;28.50;;;-0.20;99.90;;;;;;5073669;28;20182;-79
2023/12/11 00:02:58;;;;;;;53.40;30.17;;;-0.10;99.90;;;;;;5073526;28;20630;-78
2023/12/11 00:05:24;;;;;;;48.60;29.33;;;0.00;99.90;;;;;;5072825;28;20180;-79
2023/12/11 00:07:50;;;;;;;50.50;29.70;;;0.00;99.90;;;;;;5072931;28;20174;-79
2023/12/11 00:10:16;;;;;;;47.43;29.30;;;0.10;99.90;;;;;;5073810;28;20182;-78
2023/12/11 00:12:42;;;;;;;54.53;32.73;;;0.10;99.90;;;;;;5093835;28;20181;-79
2023/12/11 00:15:10;;;;;;;50.63;30.27;;;0.20;99.90;;;;;;5076136;28;20188;-79
2023/12/11 00:17:36;;;;;;;48.03;29.80;;;0.20;99.90;;;;;;5093731;28;20217;-80
2023/12/11 00:20:02;;;;;;;48.23;29.90;;;0.20;99.90;;;;;;5094026;28;20727;-78
2023/12/11 00:22:28;;;;;;;44.87;28.37;;;0.20;99.90;;;;;;5094196;28;20256;-79
2023/12/11 00:24:54;;;;;;;42.73;27.30;;;0.20;99.90;;;;;;5094922;28;20176;-79
2023/12/11 00:27:19;;;;;;;51.60;28.60;;;0.10;99.90;;;;;;5093532;28;20177;-78
2023/12/11 00:29:45;;;;;;;44.67;27.70;;;0.20;99.90;;;;;;5093965;28;20177;-78
2023/12/11 00:32:11;;;;;;;43.63;26.73;;;0.20;99.90;;;;;;5097133;28;20188;-77
2023/12/11 00:34:37;;;;;;;41.27;25.80;;;0.20;99.90;;;;;;5097449;28;20183;-77
2023/12/11 00:37:03;;;;;;;47.50;27.17;;;0.30;99.90;;;;;;5090679;28;20730;-78
2023/12/11 00:39:28;;;;;;;39.83;25.00;;;0.10;99.90;;;;;;5062360;28;20192;-77
2023/12/11 00:41:54;;;;;;;45.20;26.77;;;0.20;99.90;;;;;;5080254;28;20172;-78
2023/12/11 00:44:20;;;;;;;40.80;25.37;;;0.10;99.90;;;;;;5078242;28;20193;-77
2023/12/11 00:46:46;;;;;;;39.40;23.97;;;0.10;99.90;;;;;;5059520;28;20192;-77
2023/12/11 00:49:12;;;;;;;42.03;25.53;;;0.10;99.90;;;;;;5060252;28;20250;-78
2023/12/11 00:51:38;;;;;;;40.47;25.17;;;0.10;99.90;;;;;;5095376;28;20242;-79
2023/12/11 00:54:03;;;;;;;39.87;23.90;;;0.10;99.90;;;;;;5080990;28;20182;-78
2023/12/11 00:56:29;;;;;;;37.23;24.00;;;0.20;99.90;;;;;;5077234;28;20673;-77
2023/12/11 00:58:55;;;;;;;37.90;23.23;;;0.10;99.90;;;;;;5085073;28;20177;-78
2023/12/11 01:01:21;;;;;;;34.00;22.17;;;0.10;99.90;;;;;;5081324;28;20221;-77
2023/12/11 01:03:47;;;;;;;37.80;23.10;;;-0.10;99.90;;;;;;5077704;28;20178;-78
2023/12/11 01:06:13;;;;;;;41.23;23.57;;;-0.10;99.90;;;;;;5059264;28;20182;-77
2023/12/11 01:08:39;;;;;;;36.33;23.67;;;-0.10;99.90;;;;;;5068968;28;20285;-77
2023/12/11 01:11:05;;;;;;;39.53;22.30;;;-0.10;99.90;;;;;;5097172;28;20632;-77
2023/12/11 01:13:32;;;;;;;34.43;21.80;;;-0.10;99.90;;;;;;5096652;28;20184;-78
2023/12/11 01:15:58;;;;;;;35.60;23.23;;;-0.20;99.90;;;;;;5097330;28;20251;-78
2023/12/11 01:18:25;;;;;;;35.03;22.43;;;-0.10;99.90;;;;;;5098172;28;20177;-79
2023/12/11 01:20:51;;;;;;;32.20;20.67;;;-0.20;99.90;;;;;;5096537;28;20214;-77
2023/12/11 01:23:19;;;;;;;32.03;21.00;;;-0.10;99.90;;;;;;5102809;28;20517;-78
2023/12/11 01:25:45;;;;;;;31.80;20.97;;;-0.10;99.90;;;;;;5096137;28;20178;-78
2023/12/11 01:28:11;;;;;;;33.80;20.97;;;0.00;99.90;;;;;;5097259;28;20185;-77
2023/12/11 01:30:37;;;;;;;33.83;20.53;;;0.10;99.90;;;;;;5108059;28;20162;-77
2023/12/11 01:33:05;;;;;;;34.33;21.23;;;0.20;99.90;;;;;;5119498;28;20175;-76
2023/12/11 01:35:33;;;;;;;34.67;20.37;;;0.10;99.90;;;;;;5108957;28;20185;-78
2023/12/11 01:38:00;;;;;;;32.17;20.30;;;0.20;99.90;;;;;;5098223;28;20202;-77
2023/12/11 01:40:26;;;;;;;35.37;21.93;;;0.30;99.90;;;;;;5108613;28;20181;-77
2023/12/11 01:42:52;;;;;;;33.03;20.07;;;0.30;99.90;;;;;;5100098;28;20200;-78
2023/12/11 01:45:17;;;;;;;32.47;19.80;;;0.30;99.90;;;;;;5106675;28;20181;-75
2023/12/11 01:47:43;;;;;;;30.97;20.07;;;0.40;99.90;;;;;;5131437;28;20172;-79
2023/12/11 01:50:09;;;;;;;33.57;20.67;;;0.40;99.90;;;;;;5116680;28;20168;-77
2023/12/11 01:52:37;;;;;;;31.23;20.10;;;0.40;99.90;;;;;;5117266;28;20599;-78
2023/12/11 01:55:04;;;;;;;29.87;18.67;;;0.50;99.90;;;;;;5117141;28;20177;-78
2023/12/11 01:57:31;;;;;;;28.80;19.23;;;0.50;99.90;;;;;;5117248;28;20206;-77
2023/12/11 01:59:57;;;;;;;30.70;18.93;;;0.50;99.90;;;;;;5117596;28;20173;-77
2023/12/11 02:02:23;;;;;;;27.17;17.80;;;0.60;99.90;;;;;;5116480;28;20187;-76
2023/12/11 02:04:50;;;;;;;31.70;18.47;;;0.60;99.90;;;;;;5121221;28;20168;-77
2023/12/11 02:07:16;;;;;;;28.07;18.30;;;0.70;99.90;;;;;;5117484;28;20180;-77
2023/12/11 02:09:42;;;;;;;28.87;18.03;;;0.70;99.90;;;;;;5100907;28;20747;-77
2023/12/11 02:12:08;;;;;;;28.80;18.20;;;0.70;99.90;;;;;;5095598;28;20208;-78
2023/12/11 02:14:34;;;;;;;26.57;18.00;;;0.60;99.90;;;;;;5096331;28;20187;-79
2023/12/11 02:17:00;;;;;;;26.40;17.23;;;0.50;99.90;;;;;;5099424;28;20202;-77
2023/12/11 02:19:26;;;;;;;27.80;16.90;;;0.60;99.90;;;;;;5097659;28;20170;-76
2023/12/11 02:21:53;;;;;;;25.23;17.00;;;0.60;99.90;;;;;;5097959;28;20252;-76
2023/12/11 02:24:24;;;;;;;31.20;16.90;;;0.60;99.90;;;;;;5079113;28;20198;-77
2023/12/11 02:26:50;;;;;;;26.37;16.60;;;0.70;99.90;;;;;;5095995;28;20180;-76
2023/12/11 02:29:16;;;;;;;28.63;18.77;;;0.70;99.90;;;;;;5100319;28;20190;-77
2023/12/11 02:31:42;;;;;;;25.30;17.73;;;0.70;99.90;;;;;;5101950;28;20537;-76
2023/12/11 02:34:08;;;;;;;28.60;17.60;;;0.80;99.90;;;;;;5105082;28;20174;-77
2023/12/11 02:36:34;;;;;;;27.73;17.90;;;0.90;99.90;;;;;;5111497;28;20216;-77
2023/12/11 02:39:00;;;;;;;28.90;18.00;;;1.00;99.90;;;;;;5107663;28;20201;-78
2023/12/11 02:41:26;;;;;;;27.27;17.83;;;1.00;99.90;;;;;;5096611;28;20169;-80
2023/12/11 02:43:52;;;;;;;27.50;18.17;;;1.10;99.90;;;;;;5105618;28;20181;-79
2023/12/11 02:46:17;;;;;;;28.70;18.47;;;1.00;99.90;;;;;;5095731;28;20631;-79
2023/12/11 02:48:43;;;;;;;33.30;18.53;;;1.10;99.90;;;;;;5095387;28;20168;-76
2023/12/11 02:51:09;;;;;;;31.53;17.93;;;1.10;99.90;;;;;;5095560;28;20172;-79
2023/12/11 02:53:35;;;;;;;24.40;17.67;;;1.10;99.90;;;;;;5094701;28;20176;-79
2023/12/11 02:56:00;;;;;;;25.83;18.30;;;1.20;99.90;;;;;;5077718;28;20517;-77
2023/12/11 02:58:26;;;;;;;28.50;18.73;;;1.20;99.90;;;;;;5095319;28;20178;-79
2023/12/11 03:00:52;;;;;;;25.80;17.77;;;1.00;99.90;;;;;;5094832;28;20173;-79
2023/12/11 03:03:18;;;;;;;29.27;18.77;;;0.90;99.90;;;;;;5076921;28;20179;-80
2023/12/11 03:05:44;;;;;;;28.73;18.47;;;0.90;99.90;;;;;;5095117;28;20173;-79
2023/12/11 03:08:11;;;;;;;27.47;18.63;;;1.10;99.90;;;;;;5095041;28;20587;-79
2023/12/11 03:10:37;;;;;;;28.33;17.63;;;1.10;99.90;;;;;;5096126;28;20511;-80
2023/12/11 03:13:02;;;;;;;26.07;17.97;;;1.20;99.90;;;;;;5095089;28;20182;-79
2023/12/11 03:15:30;;;;;;;23.93;17.77;;;1.30;99.90;;;;;;5095251;28;20178;-77
2023/12/11 03:17:56;;;;;;;27.27;18.87;;;1.20;99.90;;;;;;5094673;28;20688;-78
2023/12/11 03:20:25;;;;;;;26.90;18.30;;;1.20;99.90;;;;;;5094565;28;20180;-78
2023/12/11 03:22:50;;;;;;;26.67;17.57;;;1.20;99.90;;;;;;5076378;28;20188;-77
2023/12/11 03:25:16;;;;;;;26.43;18.77;;;1.20;99.90;;;;;;5076487;28;20528;-80
2023/12/11 03:27:43;;;;;;;29.40;18.43;;;1.20;99.90;;;;;;5094480;28;20170;-80
2023/12/11 03:30:09;;;;;;;29.63;18.97;;;1.10;99.90;;;;;;5094322;28;20176;-78
2023/12/11 03:32:35;;;;;;;25.80;18.77;;;1.00;99.90;;;;;;5094714;28;20235;-76
2023/12/11 03:35:02;;;;;;;24.43;17.53;;;1.10;99.90;;;;;;5099477;28;20181;-79
2023/12/11 03:37:28;;;;;;;30.73;19.33;;;1.10;99.90;;;;;;5101706;28;20217;-76
2023/12/11 03:39:54;;;;;;;28.53;18.80;;;1.10;99.90;;;;;;5094454;28;20642;-77
2023/12/11 03:42:20;;;;;;;29.93;20.10;;;1.20;99.90;;;;;;5094902;28;20206;-76
2023/12/11 03:44:46;;;;;;;29.77;18.80;;;1.00;99.90;;;;;;5106340;28;20176;-76
2023/12/11 03:47:12;;;;;;;28.77;19.07;;;1.10;99.90;;;;;;5078398;28;20185;-77
2023/12/11 03:49:38;;;;;;;25.97;18.47;;;1.00;99.90;;;;;;5058444;28;20179;-77
2023/12/11 03:52:04;;;;;;;29.50;18.40;;;1.00;99.90;;;;;;5073272;28;20236;-76
2023/12/11 03:54:29;;;;;;;25.97;17.90;;;1.00;99.90;;;;;;5073962;28;20222;-76
2023/12/11 03:56:55;;;;;;;28.57;17.63;;;0.80;99.90;;;;;;5074503;28;20210;-77
2023/12/11 03:59:23;;;;;;;29.03;18.43;;;0.80;99.90;;;;;;5073777;28;20188;-77
2023/12/11 04:01:48;;;;;;;28.27;18.07;;;0.80;99.90;;;;;;5073199;28;20170;-79
2023/12/11 04:04:14;;;;;;;23.90;17.30;;;0.70;99.90;;;;;;5073321;28;20231;-77
2023/12/11 04:06:40;;;;;;;25.07;17.77;;;0.70;99.90;;;;;;5077099;28;20179;-77
2023/12/11 04:09:07;;;;;;;24.93;17.10;;;0.60;99.90;;;;;;5079675;28;20224;-78
2023/12/11 04:11:34;;;;;;;30.57;19.33;;;0.60;99.90;;;;;;5073352;28;20652;-78
2023/12/11 04:14:00;;;;;;;27.90;18.37;;;0.60;99.90;;;;;;5073112;28;20174;-78
2023/12/11 04:16:26;;;;;;;25.83;18.50;;;0.60;99.90;;;;;;5077000;28;20217;-78
2023/12/11 04:18:52;;;;;;;29.93;18.67;;;0.50;99.90;;;;;;5078122;28;20170;-76
2023/12/11 04:21:20;;;;;;;29.77;18.43;;;0.60;99.90;;;;;;5076529;28;20179;-76
2023/12/11 04:23:46;;;;;;;30.60;18.50;;;0.60;99.90;;;;;;5095012;28;20178;-80
2023/12/11 04:26:13;;;;;;;29.20;19.03;;;0.60;99.90;;;;;;5074529;28;20251;-78
2023/12/11 04:28:39;;;;;;;25.03;17.40;;;0.60;99.90;;;;;;5073698;28;20240;-78
2023/12/11 04:31:04;;;;;;;31.93;19.27;;;0.60;99.90;;;;;;5073372;28;20634;-80
2023/12/11 04:33:32;;;;;;;23.77;15.77;;;0.60;99.90;;;;;;5073256;28;20179;-78
2023/12/11 04:35:58;;;;;;;27.60;16.57;;;0.60;99.90;;;;;;5073369;28;20261;-80
2023/12/11 04:38:24;;;;;;;25.23;16.07;;;0.70;99.90;;;;;;5073144;28;20175;-80
2023/12/11 04:40:50;;;;;;;22.73;15.10;;;0.70;99.90;;;;;;5073405;28;20171;-79
2023/12/11 04:43:16;;;;;;;26.90;15.93;;;0.70;99.90;;;;;;5074078;28;20184;-77
2023/12/11 04:45:41;;;;;;;25.50;13.87;;;0.70;99.90;;;;;;5083889;28;20239;-78
2023/12/11 04:48:08;;;;;;;25.53;16.77;;;0.70;99.90;;;;;;5093779;28;20177;-77
2023/12/11 04:50:34;;;;;;;20.37;14.23;;;0.70;99.90;;;;;;5094244;28;20228;-79
2023/12/11 04:52:59;;;;;;;27.10;16.40;;;0.80;99.90;;;;;;5099455;28;20159;-78
2023/12/11 04:55:25;;;;;;;21.60;16.33;;;0.80;99.90;;;;;;5099114;28;20177;-77
2023/12/11 04:57:51;;;;;;;22.63;14.60;;;0.70;99.90;;;;;;5093575;28;20216;-79
2023/12/11 05:00:17;;;;;;;23.33;14.47;;;0.70;99.90;;;;;;5093443;28;20993;-77
2023/12/11 05:02:43;;;;;;;22.57;14.00;;;0.80;99.90;;;;;;5093539;28;20269;-78
2023/12/11 05:05:10;;;;;;;13.23;8.63;;;0.80;99.90;;;;;;5093134;28;20174;-78
2023/12/11 05:07:35;;;;;;;11.80;8.27;;;0.80;99.90;;;;;;5093153;28;20170;-77
2023/12/11 05:10:01;;;;;;;16.03;10.90;;;0.90;99.90;;;;;;5093544;28;20367;-79
2023/12/11 05:12:27;;;;;;;17.97;11.70;;;0.90;99.90;;;;;;5093686;28;20180;-78
2023/12/11 05:14:53;;;;;;;18.43;11.63;;;0.90;99.90;;;;;;5094186;28;20178;-79
2023/12/11 05:17:18;;;;;;;8.97;6.97;;;0.90;99.90;;;;;;5095194;28;20221;-76
2023/12/11 05:19:44;;;;;;;11.20;7.17;;;1.00;99.90;;;;;;5098400;28;20176;-79
2023/12/11 05:22:10;;;;;;;7.77;6.13;;;1.00;99.90;;;;;;5097220;28;20171;-79
2023/12/11 05:24:36;;;;;;;6.23;5.50;;;1.10;99.90;;;;;;5097516;28;20574;-78
2023/12/11 05:27:01;;;;;;;8.80;5.00;;;1.20;99.90;;;;;;5097131;28;20179;-80
2023/12/11 05:29:27;;;;;;;9.97;6.97;;;1.20;99.90;;;;;;5096677;28;20177;-79
2023/12/11 05:31:53;;;;;;;8.20;6.90;;;1.30;99.90;;;;;;5097086;28;20618;-76
2023/12/11 05:34:19;;;;;;;6.60;4.90;;;1.20;99.90;;;;;;5097284;28;20184;-79
2023/12/11 05:36:44;;;;;;;7.43;5.00;;;1.20;99.90;;;;;;5098025;28;20224;-81
2023/12/11 05:39:11;;;;;;;6.93;5.03;;;1.30;99.90;;;;;;5096720;28;20205;-78
2023/12/11 05:41:36;;;;;;;5.67;4.70;;;1.30;99.90;;;;;;5102094;28;20172;-77
2023/12/11 05:44:02;;;;;;;7.73;4.93;;;1.40;99.90;;;;;;5111954;28;20694;-79
2023/12/11 05:46:28;;;;;;;7.70;4.60;;;1.40;99.90;;;;;;5078684;28;20631;-77
2023/12/11 05:48:54;;;;;;;5.07;4.00;;;1.40;99.90;;;;;;5079356;28;20179;-77
2023/12/11 05:51:21;;;;;;;7.63;4.10;;;1.40;99.90;;;;;;5082163;28;20597;-78
2023/12/11 05:53:47;;;;;;;6.33;4.00;;;1.50;99.90;;;;;;5076373;28;20156;-78
2023/12/11 05:56:13;;;;;;;6.80;4.40;;;1.50;99.90;;;;;;5076422;28;20554;-78
2023/12/11 05:58:39;;;;;;;6.67;4.77;;;1.60;99.90;;;;;;5075721;28;20163;-76
2023/12/11 06:01:04;;;;;;;7.80;4.67;;;1.70;99.90;;;;;;5077342;28;20179;-76
2023/12/11 06:03:30;;;;;;;9.97;6.07;;;1.80;99.90;;;;;;5077104;28;20252;-76
2023/12/11 06:05:57;;;;;;;9.30;5.90;;;1.80;99.90;;;;;;5076322;28;20169;-77
2023/12/11 06:08:25;;;;;;;13.87;8.63;;;1.80;99.90;;;;;;5091632;28;20198;-78
2023/12/11 06:10:53;;;;;;;15.33;10.27;;;1.70;99.90;;;;;;5089134;28;20183;-77
2023/12/11 06:13:19;;;;;;;18.77;12.07;;;1.50;99.90;;;;;;5081296;28;20170;-79
2023/12/11 06:15:45;;;;;;;13.87;9.80;;;1.40;99.90;;;;;;5075656;28;20182;-80
2023/12/11 06:18:11;;;;;;;12.10;8.50;;;1.40;99.90;;;;;;5075970;28;20758;-78
2023/12/11 06:20:37;;;;;;;17.57;7.47;;;1.40;99.90;;;;;;5075501;28;20170;-78
2023/12/11 06:23:02;;;;;;;13.07;7.63;;;1.40;99.90;;;;;;5075526;28;20254;-78
2023/12/11 06:25:28;;;;;;;15.10;8.47;;;1.50;99.90;;;;;;5075701;28;20176;-80
2023/12/11 06:27:54;;;;;;;15.63;9.47;;;1.50;99.90;;;;;;5057394;28;20183;-79
2023/12/11 06:30:20;;;;;;;18.43;10.90;;;1.50;99.90;;;;;;5057896;28;20186;-79
2023/12/11 06:32:46;;;;;;;17.83;11.13;;;1.50;99.90;;;;;;5076310;28;20277;-79
2023/12/11 06:35:11;;;;;;;19.77;11.83;;;1.50;99.90;;;;;;5058759;28;20551;-78
2023/12/11 06:37:37;;;;;;;21.03;14.57;;;1.50;99.90;;;;;;5076999;28;20246;-78
2023/12/11 06:40:03;;;;;;;20.30;14.70;;;1.50;99.90;;;;;;5096266;28;20196;-77
2023/12/11 06:42:37;;;;;;;21.27;14.63;;;1.50;99.90;;;;;;5095589;28;20271;-77
2023/12/11 06:45:08;;;;;;;23.47;14.83;;;1.50;99.90;;;;;;5090536;28;20235;-79
2023/12/11 06:47:36;;;;;;;21.50;14.97;;;1.40;99.90;;;;;;5079831;28;20160;-78
2023/12/11 06:50:02;;;;;;;20.40;12.37;;;1.40;99.90;;;;;;5077789;28;20189;-79
2023/12/11 06:52:28;;;;;;;21.03;13.53;;;1.50;99.90;;;;;;5076108;28;20179;-77
2023/12/11 06:54:54;;;;;;;21.77;13.47;;;1.60;99.90;;;;;;5080750;28;20175;-79
2023/12/11 06:57:21;;;;;;;22.03;14.43;;;1.60;99.90;;;;;;5077260;28;20215;-78
2023/12/11 06:59:47;;;;;;;23.20;13.80;;;1.60;99.90;;;;;;5075171;28;20209;-76
2023/12/11 07:02:13;;;;;;;24.33;15.00;;;1.60;99.90;;;;;;5074847;28;20189;-81
2023/12/11 07:04:41;;;;;;;21.97;15.13;;;1.70;99.90;;;;;;5075104;28;20179;-78
2023/12/11 07:07:07;;;;;;;22.87;15.53;;;1.70;99.90;;;;;;5075092;28;20179;-75
2023/12/11 07:09:33;;;;;;;24.50;14.07;;;1.60;99.90;;;;;;5074737;28;20230;-78
2023/12/11 07:11:59;;;;;;;19.97;12.90;;;1.60;99.90;;;;;;5075047;28;20171;-78
2023/12/11 07:14:25;;;;;;;20.40;13.57;;;1.60;99.90;;;;;;5075542;28;20557;-77
2023/12/11 07:16:51;;;;;;;20.00;13.80;;;1.60;99.90;;;;;;5080081;28;20450;-78
2023/12/11 07:19:19;;;;;;;19.50;11.93;;;1.60;99.90;;;;;;5075289;28;20712;-78
2023/12/11 07:21:45;;;;;;;12.07;8.47;;;1.60;99.90;;;;;;5075648;28;20195;-77
2023/12/11 07:24:11;;;;;;;15.43;10.20;;;1.60;99.90;;;;;;5057357;28;20583;-76
2023/12/11 07:26:37;;;;;;;14.43;10.27;;;1.60;99.90;;;;;;5075331;28;20178;-78
2023/12/11 07:29:04;;;;;;;20.00;13.20;;;1.60;99.90;;;;;;5061513;28;20174;-78
2023/12/11 07:31:30;;;;;;;25.67;14.40;;;1.60;99.90;;;;;;5057828;28;20222;-78
2023/12/11 07:33:56;;;;;;;26.80;15.60;;;1.70;99.90;;;;;;5078769;28;20196;-78
2023/12/11 07:36:22;;;;;;;25.40;16.53;;;1.70;99.90;;;;;;5075695;28;20625;-78
2023/12/11 07:38:49;;;;;;;25.63;17.73;;;1.60;99.90;;;;;;5075083;28;20233;-77
2023/12/11 07:41:24;;;;;;;31.00;19.30;;;1.50;99.90;;;;;;5088029;28;20166;-77
2023/12/11 07:43:50;;;;;;;31.30;19.33;;;1.10;99.90;;;;;;5084285;28;20203;-78
2023/12/11 07:46:17;;;;;;;34.17;20.23;;;0.90;99.90;;;;;;5080979;28;20737;-77
2023/12/11 07:48:43;;;;;;;32.43;20.33;;;1.00;99.90;;;;;;5076302;28;20167;-76
2023/12/11 07:51:19;;;;;;;31.93;20.27;;;1.10;99.90;;;;;;5084790;28;20185;-76
2023/12/11 07:53:47;;;;;;;31.93;20.30;;;1.20;99.90;;;;;;5078479;28;20223;-80
2023/12/11 07:56:23;;;;;;;34.07;19.50;;;1.10;99.90;;;;;;5074478;28;20666;-78
2023/12/11 07:58:50;;;;;;;27.27;17.77;;;1.20;99.90;;;;;;5074880;28;20178;-80
2023/12/11 08:01:16;;;;;;;22.10;15.80;;;1.20;99.90;;;;;;5074169;28;20171;-78
2023/12/11 08:03:43;;;;;;;23.17;14.77;;;1.10;99.90;;;;;;5074690;28;20267;-77
2023/12/11 08:06:09;;;;;;;20.40;14.23;;;1.10;99.90;;;;;;5073640;28;20507;-79
2023/12/11 08:08:43;;;;;;;21.80;14.20;;;1.10;99.90;;;;;;5074138;28;20236;-79
2023/12/11 08:11:25;;;;;;;21.90;15.07;;;1.10;99.90;;;;;;5057594;28;20207;-78
2023/12/11 08:13:51;;;;;;;22.77;14.43;;;1.20;99.90;;;;;;5075210;28;20641;-79
2023/12/11 08:16:17;;;;;;;20.73;14.40;;;1.20;99.90;;;;;;5074240;28;20631;-78
2023/12/11 08:18:48;;;;;;;21.57;14.37;;;1.30;99.90;;;;;;5073986;28;20179;-78
2023/12/11 08:21:14;;;;;;;24.13;14.67;;;1.40;99.90;;;;;;5074008;28;20522;-77
2023/12/11 08:23:43;;;;;;;23.43;14.40;;;1.40;99.90;;;;;;5073924;28;20182;-79
2023/12/11 08:26:10;;;;;;;21.03;14.53;;;1.30;99.90;;;;;;5074386;28;20167;-78
2023/12/11 08:28:36;;;;;;;19.90;14.70;;;1.50;99.90;;;;;;5073760;28;20187;-76
2023/12/11 08:31:03;;;;;;;23.70;15.23;;;1.50;99.90;;;;;;5076801;28;20180;-77
2023/12/11 08:33:29;;;;;;;21.90;14.97;;;1.70;99.90;;;;;;5080209;28;20182;-78
2023/12/11 08:35:55;;;;;;;20.97;15.20;;;1.90;99.90;;;;;;5086362;28;20691;-80
2023/12/11 08:38:23;;;;;;;21.57;15.37;;;2.10;99.90;;;;;;5083439;28;20187;-79
2023/12/11 08:40:49;;;;;;;19.47;14.33;;;2.10;99.90;;;;;;5078605;28;20176;-77
2023/12/11 08:43:16;;;;;;;20.83;13.97;;;2.10;99.90;;;;;;5056208;28;20329;-78
2023/12/11 08:45:42;;;;;;;21.20;13.93;;;2.10;99.90;;;;;;5085477;28;20174;-79
2023/12/11 08:48:08;;;;;;;20.73;13.90;;;2.00;99.90;;;;;;5095339;28;20638;-77
2023/12/11 08:50:34;;;;;;;20.77;13.67;;;2.00;99.90;;;;;;5095237;28;20183;-78
2023/12/11 08:53:01;;;;;;;20.00;13.33;;;2.10;99.90;;;;;;5096944;28;20178;-79
2023/12/11 08:55:30;;;;;;;18.87;12.70;;;2.20;99.90;;;;;;5099230;28;20253;-77
2023/12/11 08:57:56;;;;;;;21.27;10.73;;;2.30;99.90;;;;;;5097084;28;20229;-77
2023/12/11 09:00:22;;;;;;;13.77;11.43;;;2.40;99.90;;;;;;5097783;28;20183;-79
2023/12/11 09:02:48;;;;;;;17.00;10.13;;;2.40;99.90;;;;;;5097893;28;20192;-80
2023/12/11 09:05:15;;;;;;;13.17;9.90;;;2.40;99.90;;;;;;5079933;28;20174;-80
2023/12/11 09:07:41;;;;;;;14.57;9.50;;;2.60;99.90;;;;;;5098288;28;20564;-78
2023/12/11 09:10:08;;;;;;;11.80;8.23;;;2.70;99.90;;;;;;5097374;28;20255;-80
2023/12/11 09:12:35;;;;;;;13.27;8.50;;;2.90;99.90;;;;;;5097500;28;20170;-78
2023/12/11 09:15:02;;;;;;;9.83;8.13;;;2.90;99.90;;;;;;5097109;28;20168;-75
2023/12/11 09:17:28;;;;;;;10.97;8.40;;;3.00;99.90;;;;;;5098568;28;20204;-79
2023/12/11 09:19:54;;;;;;;15.93;9.90;;;3.10;99.90;;;;;;5098825;28;20199;-80
2023/12/11 09:22:20;;;;;;;12.67;9.80;;;3.10;99.90;;;;;;5098576;28;20178;-76
2023/12/11 09:24:46;;;;;;;12.87;9.47;;;3.20;99.90;;;;;;5097734;28;20168;-78
2023/12/11 09:27:12;;;;;;;13.47;10.37;;;3.30;99.90;;;;;;5101740;28;20183;-78
2023/12/11 09:29:38;;;;;;;13.30;10.47;;;3.40;99.90;;;;;;5106242;28;20180;-79
2023/12/11 09:32:04;;;;;;;13.53;10.33;;;3.50;99.90;;;;;;5097165;28;20167;-78
2023/12/11 09:34:30;;;;;;;15.87;10.13;;;3.60;99.90;;;;;;5079366;28;20684;-78
2023/12/11 09:36:57;;;;;;;15.90;10.80;;;3.60;99.90;;;;;;5098424;28;20241;-77
2023/12/11 09:39:23;;;;;;;18.93;11.00;;;3.60;99.90;;;;;;5109225;28;20234;-77
2023/12/11 09:41:49;;;;;;;14.60;11.00;;;3.70;99.90;;;;;;5103332;28;20177;-76
2023/12/11 09:44:17;;;;;;;16.53;10.13;;;3.80;99.90;;;;;;5078683;28;20634;-78
2023/12/11 09:47:10;;;;;;;12.20;8.87;;;3.70;99.90;;;;;;5077762;28;20244;-77
2023/12/11 09:49:38;;;;;;;11.87;9.27;;;3.80;99.90;;;;;;5064795;28;20218;-78
2023/12/11 09:52:04;;;;;;;10.60;8.63;;;4.40;99.90;;;;;;5076940;28;20175;-80
2023/12/11 09:54:29;;;;;;;13.90;9.23;;;3.90;99.90;;;;;;5058772;28;20186;-78
2023/12/11 09:56:57;;;;;;;11.27;8.53;;;3.90;99.90;;;;;;5076441;28;20213;-78
2023/12/11 09:59:25;;;;;;;11.97;8.60;;;4.10;99.90;;;;;;5076317;28;20615;-79
2023/12/11 10:01:51;;;;;;;13.27;9.43;;;4.20;99.90;;;;;;5076733;28;20191;-78
2023/12/11 10:04:17;;;;;;;11.90;9.00;;;4.30;99.90;;;;;;5083060;28;20175;-77
2023/12/11 10:06:43;;;;;;;12.63;9.07;;;4.40;99.90;;;;;;5080571;28;20201;-78
2023/12/11 10:09:26;;;;;;;14.23;10.10;;;4.50;99.90;;;;;;5076699;28;20222;-79
2023/12/11 10:12:00;;;;;;;11.77;8.67;;;4.60;99.90;;;;;;5081738;28;20201;-77
2023/12/11 10:14:28;;;;;;;11.33;7.17;;;4.80;99.90;;;;;;5076313;28;20196;-77
2023/12/11 10:16:54;;;;;;;9.90;7.20;;;4.80;99.90;;;;;;5076000;28;20197;-78
2023/12/11 10:19:33;;;;;;;10.40;8.03;;;4.90;99.90;;;;;;5076347;28;20207;-77
2023/12/11 10:22:00;;;;;;;10.17;6.97;;;4.90;99.90;;;;;;5076313;28;20171;-78
2023/12/11 10:24:26;;;;;;;15.80;8.50;;;5.10;99.90;;;;;;5075305;28;20179;-76
2023/12/11 10:26:56;;;;;;;11.87;8.03;;;5.20;99.90;;;;;;5075721;28;20183;-78
2023/12/11 10:29:24;;;;;;;12.53;8.40;;;5.30;99.90;;;;;;5075351;28;20170;-80
2023/12/11 10:31:51;;;;;;;12.00;7.53;;;5.30;99.90;;;;;;5075647;28;20247;-79
2023/12/11 10:34:17;;;;;;;8.93;6.17;;;5.40;99.90;;;;;;5075566;28;20180;-77
2023/12/11 10:36:50;;;;;;;6.73;6.03;;;5.50;99.90;;;;;;5075198;28;20205;-79
2023/12/11 10:39:16;;;;;;;7.20;5.93;;;5.60;99.90;;;;;;5075866;28;20192;-76
2023/12/11 10:41:45;;;;;;;8.27;5.67;;;5.80;99.90;;;;;;5075543;28;20182;-78
2023/12/11 10:44:24;;;;;;;6.53;5.30;;;5.90;99.90;;;;;;5076220;28;20207;-78
2023/12/11 10:46:56;;;;;;;7.43;5.47;;;6.10;99.90;;;;;;5075647;28;20228;-79
2023/12/11 10:49:23;;;;;;;10.03;6.37;;;6.20;99.90;;;;;;5075747;28;20182;-78
2023/12/11 10:51:49;;;;;;;7.87;5.53;;;6.20;99.90;;;;;;5075778;28;20186;-77
2023/12/11 10:54:16;;;;;;;7.87;5.90;;;6.30;99.90;;;;;;5075469;28;20169;-79
2023/12/11 10:56:45;;;;;;;7.77;5.67;;;6.30;99.90;;;;;;5075552;28;20692;-78
2023/12/11 10:59:12;;;;;;;7.20;5.87;;;6.30;99.90;;;;;;5058190;28;20204;-77
2023/12/11 11:01:44;;;;;;;9.67;5.60;;;6.40;99.90;;;;;;5075740;28;20227;-78
2023/12/11 11:04:13;;;;;;;6.13;5.40;;;6.50;99.90;;;;;;5075242;28;20169;-79
2023/12/11 11:07:05;;;;;;;6.00;5.33;;;6.60;99.90;;;;;;5057231;28;20181;-78
2023/12/11 11:09:59;;;;;;;7.43;6.07;;;6.70;99.90;;;;;;5075072;28;20279;-78
2023/12/11 11:12:54;;;;;;;8.33;6.37;;;6.80;99.90;;;;;;5078514;28;20162;-76
2023/12/11 11:15:24;;;;;;;12.03;6.40;;;6.90;99.90;;;;;;5095679;28;20158;-76
2023/12/11 11:18:01;;;;;;;10.40;8.17;;;6.90;99.90;;;;;;5087644;28;20206;-77
2023/12/11 11:20:34;;;;;;;13.73;8.90;;;7.00;99.90;;;;;;5075396;28;20685;-78
2023/12/11 11:23:18;;;;;;;12.80;8.17;;;7.00;99.90;;;;;;5079325;28;20519;-77
2023/12/11 11:25:55;;;;;;;13.00;9.60;;;7.10;99.90;;;;;;5076233;28;20645;-76
2023/12/11 11:28:40;;;;;;;13.83;10.20;;;7.10;99.90;;;;;;5075731;28;20207;-77
2023/12/11 11:31:09;;;;;;;15.57;10.87;;;7.10;99.90;;;;;;5074546;28;20214;-79
2023/12/11 11:33:49;;;;;;;17.23;11.23;;;7.10;99.90;;;;;;5074800;28;20198;-76
2023/12/11 11:36:20;;;;;;;13.70;12.13;;;7.00;99.90;;;;;;5074738;28;20161;-76
2023/12/11 11:38:57;;;;;;;17.23;12.23;;;7.00;99.90;;;;;;5088772;28;20185;-77
2023/12/11 11:41:28;;;;;;;15.43;11.50;;;6.80;99.90;;;;;;5077664;28;20638;-78
2023/12/11 11:44:14;;;;;;;18.13;11.53;;;6.80;99.90;;;;;;5075608;28;20163;-77
2023/12/11 11:46:55;;;;;;;17.37;12.77;;;6.80;99.90;;;;;;5094852;28;20178;-77
2023/12/11 11:49:33;;;;;;;16.43;11.33;;;6.70;99.90;;;;;;5093992;28;20169;-77
2023/12/11 11:52:03;;;;;;;20.40;13.53;;;6.70;99.90;;;;;;5094149;28;20158;-76
2023/12/11 11:54:31;;;;;;;19.00;12.37;;;6.70;99.90;;;;;;5093474;28;20178;-77
2023/12/11 11:56:56;;;;;;;22.47;14.63;;;6.70;99.90;;;;;;5094013;28;20527;-76
2023/12/11 11:59:22;;;;;;;21.97;14.23;;;6.70;99.90;;;;;;5095200;28;20227;-76
2023/12/11 12:01:59;;;;;;;19.57;14.33;;;6.80;99.90;;;;;;5096907;28;20176;-78
2023/12/11 12:04:29;;;;;;;19.03;13.90;;;6.70;99.90;;;;;;5102090;28;20168;-76
2023/12/11 12:07:03;;;;;;;18.13;14.03;;;6.80;99.90;;;;;;5099128;28;20176;-76
2023/12/11 12:09:33;;;;;;;20.00;14.03;;;6.80;99.90;;;;;;5094068;28;20245;-77
2023/12/11 12:11:59;;;;;;;18.73;14.27;;;6.80;99.90;;;;;;5095020;28;20646;-77
2023/12/11 12:14:26;;;;;;;22.47;14.07;;;6.80;99.90;;;;;;5093814;28;20168;-78
2023/12/11 12:16:52;;;;;;;18.33;14.67;;;6.80;99.90;;;;;;5094901;28;20586;-76
2023/12/11 12:19:39;;;;;;;20.47;14.27;;;6.70;99.90;;;;;;5094455;28;20173;-79
2023/12/11 12:22:05;;;;;;;25.90;14.60;;;6.70;99.90;;;;;;5094342;28;20197;-79
2023/12/11 12:24:36;;;;;;;24.83;15.07;;;6.80;99.90;;;;;;5094261;28;20177;-79
2023/12/11 12:27:09;;;;;;;19.07;14.23;;;6.60;99.90;;;;;;5079523;28;20185;-78
2023/12/11 12:29:36;;;;;;;48.60;29.43;;;6.60;99.90;;;;;;5099441;28;20191;-76
2023/12/11 12:32:02;;;;;;;65.60;35.90;;;6.60;99.90;;;;;;5099978;28;20196;-77
2023/12/11 12:34:32;;;;;;;25.30;17.27;;;6.70;99.90;;;;;;5101028;28;20184;-77
2023/12/11 12:37:01;;;;;;;26.20;16.73;;;6.70;99.90;;;;;;5084687;28;20572;-75
2023/12/11 12:39:27;;;;;;;26.70;15.50;;;6.80;99.90;;;;;;5099865;28;20538;-78
2023/12/11 12:41:53;;;;;;;28.47;16.27;;;6.90;99.90;;;;;;5102553;28;20262;-77